• Join FlightAware (Why Join?)
  • Login
  • US Flag 
05:14PM EDT


 

Airport Tracker/Info


-or-


 

Live Flight TrackerFlight Track Log ✈ N860BA ✈ 16-Oct-2013 ✈ KTEB - KBED

Flight Track Log - Related Links

Times and Time Zones

All times are in EDT time to prevent confusion due to time zone crossing. See the N860BA flight status page for this flight to view local times or setup timezone preferences in your user account.

Time Position Orientation Groundspeed Altitude Reporting Facility
EDT Latitude Longitude Course Direction KTS MPH feet Rate Location/Type
10:02AM 40.8667 -74.0500 323° Northwest 148 170 900  Level New York TRACON
10:03AM 40.9000 -74.0833 323° Northwest 235 270 2,700 2,520 Climbing New York TRACON
10:04AM 40.8833 -74.1833 258° West 263 303 5,900 1,620 Climbing New York TRACON
10:05AM 40.9333 -74.2500 315° West 291 335 6,000  Climbing New York TRACON
10:06AM 41.0000 -74.2167 21° North 301 346 6,000 420 Level New York TRACON
10:07AM 41.0833 -74.1667 24° Northeast 300 345 6,900 1,320 Climbing New York TRACON
10:08AM 41.1333 -74.0833 51° Northeast 295 339 8,800 1,800 Climbing New York TRACON
10:09AM 41.1667 -73.9833 66° East 305 351 10,500 1,440 Climbing New York TRACON
10:10AM 41.2000 -73.8667 69° East 358 412 11,600 1,200 Climbing New York TRACON
10:11AM 41.2333 -73.7333 72° East 398 458 12,900 780 Climbing New York TRACON
10:13AM 41.2908 -73.5008 72° East 436 502 13,800 660 Climbing Boston Center
10:14AM 41.3256 -73.3633 71° East 430 495 14,800 540 Climbing Boston Center
10:15AM 41.3683 -73.1953 71° East 428 493 15,000 60 Climbing Boston Center
10:16AM 41.4192 -73.0575 64° Northeast 444 511 15,000  Level Boston Center
10:17AM 41.4928 -72.8944 59° Northeast 459 528 15,100  Climbing Boston Center
10:18AM 41.5517 -72.7564 60° Northeast 464 534 15,100  Level Boston Center
10:19AM 41.6250 -72.5900 59° Northeast 464 534 15,100 -300 Level Boston Center
10:20AM 41.7003 -72.4819 47° Northeast 457 526 14,500 -960 Descending Boston Center
10:20AM 41.7628 -72.4178 37° Northeast 406 467 13,600 -1,680 Descending Boston Center
10:21AM 41.8086 -72.3678 39° Northeast 389 448 12,600 -1,740 Descending Boston Center
10:22AM 41.8814 -72.2839 41° Northeast 393 452 11,100 -1,140 Descending Boston Center
10:22AM 41.9314 -72.2281 40° Northeast 389 448 11,000 -420 Descending Boston Center
10:23AM 41.9667 -72.1889 40° Northeast 387 445 10,700 -1,200 Descending Boston Center
10:23AM 42.0144 -72.1300 42° Northeast 360 414 9,700 -1,620 Descending Boston Center
10:24AM 42.0394 -72.1047 37° Northeast 359 413 9,100 -1,980 Descending Boston Center
10:24AM 42.0831 -72.0681 32° Northeast 311 358 7,900 -2,220 Descending Boston Center
10:25AM 42.1142 -72.0456 28° Northeast 324 373 7,000 -2,400 Descending Boston Center
10:25AM 42.1411 -72.0342 17° North 287 330 6,100 -2,400 Descending Boston Center
10:26AM 42.1892 -72.0086 22° Northeast 295 339 4,600 -1,920 Descending Boston Center
10:26AM 42.2161 -71.9972 17° North 280 322 4,200 -540 Descending Boston Center
10:27AM 42.2472 -71.9464 50° Northeast 274 315 4,100 -60 Descending Boston Center
10:28AM 42.2906 -71.8675 53° Northeast 268 308 4,100  Level Boston Center
10:29AM 42.3442 -71.7717 53° Northeast 279 321 4,100  Level Boston Center
10:30AM 42.3939 -71.6894 51° Northeast 284 327 4,100  Level Boston Center
10:31AM 42.4433 -71.6100 50° Northeast 279 321 4,100 -300 Level Boston Center
10:31AM 42.4833 -71.5500 48° Northeast 277 319 3,700 -660 Descending KA90
10:32AM 42.5167 -71.4833 56° Northeast 273 314 3,100 -300 Descending KA90
10:33AM 42.5500 -71.4000 61° Northeast 253 291 3,100  Level KA90
10:35AM 42.5667 -71.2667 80° East 275 316 3,100 -120 Level KA90
10:36AM 42.5667 -71.1667 90° East 268 308 2,900 -600 Descending KA90
10:37AM 42.5333 -71.0833 118° Southeast 240 276 1,900 -540 Descending KA90
10:38AM 42.4833 -71.0667 166° South 189 217 1,900  Level KA90
10:39AM 42.4500 -71.1167 228° Southwest 198 228 1,900 -180 Level KA90
10:39AM 42.4667 -71.1833 289° West 162 186 1,600 -600 Descending KA90
10:40AM 42.4667 -71.2333 270° West 149 171 800 -840 Descending KA90